This is the latest recevied weather packets stored in our database for station/object KY0TEQ-13. If no packets are shown the sender has not sent any weather packets the latest 1 day(s).
| Time | Temp. | Humidity | Pressure | Rain* | Wind** | Luminosity | Snow |
|---|---|---|---|---|---|---|---|
| 1778029778 | 9.44° C | 52% | 1294.2 hPa | 0 mm | - | 53 W/m² | - |
| 1778029173 | 10° C | 51% | 1294.5 hPa | 0 mm | - | 37 W/m² | - |
| 1778028566 | 10.56° C | 48% | 1294 hPa | 0 mm | - | 49 W/m² | - |
| 1778027960 | 11.67° C | 43% | 1293.6 hPa | 0 mm | - | 37 W/m² | - |
| 1778027657 | 11.67° C | 39% | 1293.4 hPa | 0 mm | - | 46 W/m² | - |
| 1778027353 | 12.22° C | 39% | 1293.6 hPa | 0 mm | - | 50 W/m² | - |
| 1778024928 | 13.89° C | 26% | 1293.1 hPa | 0 mm | - | 96 W/m² | - |
| 1778024626 | 13.89° C | 27% | 1292.9 hPa | 0 mm | - | 110 W/m² | - |
| 1778021901 | 15° C | 24% | 1293.1 hPa | 0 mm | - | 287 W/m² | - |
| 1778021293 | 15° C | 23% | 1293.2 hPa | 0 mm | - | 306 W/m² | - |
| 1778018868 | 15.56° C | 24% | 1293.7 hPa | 0 mm | - | 179 W/m² | - |
| 1778016750 | 15.56° C | 22% | 1294 hPa | 0 mm | - | 690 W/m² | - |
| 1778016446 | 15° C | 24% | 1294.4 hPa | 0 mm | - | 634 W/m² | - |
| 1778015538 | 15.56° C | 23% | 1294.5 hPa | 0 mm | - | 711 W/m² | - |
| 1778015234 | 15.56° C | 23% | 1294.5 hPa | 0 mm | - | 765 W/m² | - |
| 1778012203 | 14.44° C | 22% | 1295.1 hPa | 0 mm | - | 992 W/m² | - |
| 1778011901 | 15° C | 22% | 1295.3 hPa | 0 mm | - | 382 W/m² | - |
| 1778010689 | 15.56° C | 22% | 1295.1 hPa | 0 mm | - | 684 W/m² | - |
| 1778009773 | 14.44° C | 24% | 1295.6 hPa | 0 mm | - | 525 W/m² | - |
| 1778009470 | 13.89° C | 25% | 1295.1 hPa | 0 mm | - | 479 W/m² | - |
| 1778007652 | 14.44° C | 25% | 1295.9 hPa | 0 mm | - | 964 W/m² | - |
| 1778006737 | 13.89° C | 25% | 1296.1 hPa | 0 mm | - | 739 W/m² | - |
| 1778005828 | 13.89° C | 23% | 1296.1 hPa | 0 mm | - | 775 W/m² | - |
| 1778005524 | 13.33° C | 26% | 1296.5 hPa | 0 mm | - | 471 W/m² | - |
| 1778005221 | 12.78° C | 25% | 1296.6 hPa | 0 mm | - | 587 W/m² | - |
* Rain latest hour (hover to see other rain measurements)
** Current wind speed in m/s (hover to see current wind gust speed)